createdAt,value
2023-04-15T00:02:00.155Z,88.23
2023-04-15T00:04:28.491Z,88.20
2023-04-15T00:06:56.102Z,89.15
2023-04-15T00:09:24.061Z,88.96
2023-04-15T00:11:51.812Z,88.16
2023-04-15T00:14:19.323Z,87.42
2023-04-15T00:16:46.842Z,87.83
2023-04-15T00:19:14.654Z,87.72
2023-04-15T00:21:42.138Z,87.90
2023-04-15T00:24:09.605Z,86.88
2023-04-15T00:26:37.587Z,86.74
2023-04-15T00:29:05.333Z,86.95
2023-04-15T00:31:33.014Z,87.12
2023-04-15T00:34:00.892Z,86.86
2023-04-15T00:36:28.462Z,86.77
2023-04-15T00:38:55.973Z,87.59
2023-04-15T00:41:24.108Z,88.00
2023-04-15T00:43:51.612Z,88.75
2023-04-15T00:46:21.457Z,88.28
2023-04-15T00:48:50.601Z,88.44
2023-04-15T00:51:18.150Z,88.67
2023-04-15T00:53:45.718Z,88.73
2023-04-15T00:56:14.225Z,89.03
2023-04-15T00:58:42.154Z,90.47
2023-04-15T01:01:10.225Z,90.11
2023-04-15T01:03:38.382Z,90.12
2023-04-15T01:06:06.682Z,90.20
2023-04-15T01:08:34.505Z,90.27
2023-04-15T01:11:03.761Z,90.24
2023-04-15T01:13:33.976Z,90.04
2023-04-15T01:16:03.216Z,89.97
2023-04-15T01:18:31.670Z,89.83
2023-04-15T01:21:03.827Z,89.65
2023-04-15T01:23:32.796Z,89.41
2023-04-15T01:26:00.335Z,88.78
2023-04-15T01:28:28.537Z,88.09
2023-04-15T01:31:08.037Z,87.96
2023-04-15T01:33:38.280Z,87.41
2023-04-15T01:36:09.588Z,87.27
2023-04-15T01:38:38.097Z,86.86
2023-04-15T01:41:08.069Z,87.53
2023-04-15T01:43:38.750Z,87.25
2023-04-15T01:46:07.161Z,86.34
2023-04-15T01:48:34.660Z,86.58
2023-04-15T01:51:04.168Z,87.44
2023-04-15T01:53:32.451Z,86.65
2023-04-15T01:56:00.017Z,85.98
2023-04-15T01:58:27.831Z,85.96
2023-04-15T02:00:55.674Z,86.34
2023-04-15T02:03:25.656Z,87.29
2023-04-15T02:05:53.292Z,87.62
2023-04-15T02:08:21.759Z,87.36
2023-04-15T02:10:49.535Z,87.69
2023-04-15T02:13:17.158Z,87.88
2023-04-15T02:15:49.531Z,87.61
2023-04-15T02:18:19.246Z,87.54
2023-04-15T02:20:47.248Z,87.39
2023-04-15T02:23:14.827Z,87.47
2023-04-15T02:25:53.494Z,87.67
2023-04-15T02:28:22.161Z,87.50
2023-04-15T02:30:53.503Z,87.59
2023-04-15T02:33:21.843Z,87.87
2023-04-15T02:35:49.610Z,88.06
2023-04-15T02:38:18.071Z,88.61
2023-04-15T02:40:46.251Z,89.36
2023-04-15T02:43:14.124Z,89.58
2023-04-15T02:45:43.589Z,89.47
2023-04-15T02:48:11.608Z,89.49
2023-04-15T02:50:40.798Z,89.01
2023-04-15T02:53:09.158Z,89.34
2023-04-15T02:55:36.995Z,89.23
2023-04-15T02:58:04.849Z,89.11
2023-04-15T03:00:32.395Z,89.31
2023-04-15T03:03:02.973Z,89.34
2023-04-15T03:05:31.085Z,88.89
2023-04-15T03:07:58.644Z,89.61
2023-04-15T03:10:26.168Z,89.97
2023-04-15T03:12:54.036Z,90.48
2023-04-15T03:15:22.392Z,90.81
2023-04-15T03:17:50.108Z,91.11
2023-04-15T03:20:18.082Z,90.65
2023-04-15T03:22:45.614Z,90.51
2023-04-15T03:25:13.077Z,90.21
2023-04-15T03:27:41.899Z,90.09
2023-04-15T03:30:10.233Z,90.23
2023-04-15T03:32:38.480Z,90.57
2023-04-15T03:35:07.376Z,90.63
2023-04-15T03:37:34.832Z,90.95
2023-04-15T03:40:02.655Z,91.24
2023-04-15T03:42:30.648Z,91.74
2023-04-15T03:44:58.112Z,92.08
2023-04-15T03:47:25.729Z,92.18
2023-04-15T03:49:53.504Z,92.19
2023-04-15T03:52:21.006Z,92.14
2023-04-15T03:54:48.488Z,92.31
2023-04-15T03:57:16.323Z,91.93
2023-04-15T03:59:44.010Z,91.86
2023-04-15T04:02:11.739Z,91.86
2023-04-15T04:04:39.649Z,91.63
2023-04-15T04:07:07.216Z,91.61
2023-04-15T04:09:34.785Z,91.84
2023-04-15T04:12:02.700Z,91.28
2023-04-15T04:14:30.332Z,90.87
2023-04-15T04:16:57.905Z,90.83
2023-04-15T04:19:25.839Z,91.46
2023-04-15T04:21:53.629Z,91.52
2023-04-15T04:24:21.453Z,91.35
2023-04-15T04:26:49.293Z,91.06
2023-04-15T04:29:16.922Z,90.75
2023-04-15T04:31:44.476Z,90.76
2023-04-15T04:34:12.402Z,91.05
2023-04-15T04:36:39.934Z,91.17
2023-04-15T04:39:07.956Z,91.15
2023-04-15T04:41:35.756Z,91.14
2023-04-15T04:44:03.671Z,90.96
2023-04-15T04:46:31.196Z,91.28
2023-04-15T04:48:59.013Z,91.34
2023-04-15T04:51:26.670Z,91.55
2023-04-15T04:53:54.428Z,91.59
2023-04-15T04:56:22.191Z,91.51
2023-04-15T04:58:49.717Z,91.34
2023-04-15T05:01:17.592Z,91.18
2023-04-15T05:03:45.722Z,90.93
2023-04-15T05:06:13.339Z,90.63
2023-04-15T05:08:41.412Z,91.03
2023-04-15T05:11:09.248Z,90.86
2023-04-15T05:13:38.756Z,91.11
2023-04-15T05:16:06.561Z,91.02
2023-04-15T05:18:34.550Z,91.12
2023-04-15T05:21:02.768Z,91.31
2023-04-15T05:23:30.383Z,91.71
2023-04-15T05:25:58.318Z,91.86
2023-04-15T05:28:25.821Z,92.20
2023-04-15T05:30:53.393Z,92.28
2023-04-15T05:33:21.346Z,92.01
2023-04-15T05:35:48.899Z,91.65
2023-04-15T05:38:16.368Z,91.73
2023-04-15T05:40:44.224Z,91.79
2023-04-15T05:43:11.750Z,92.04
2023-04-15T05:45:39.338Z,92.04
2023-04-15T05:48:07.192Z,91.71
2023-04-15T05:50:34.989Z,92.22
2023-04-15T05:53:02.589Z,91.78
2023-04-15T05:55:30.470Z,91.54
2023-04-15T05:57:57.925Z,92.18
2023-04-15T06:00:26.097Z,92.26
2023-04-15T06:02:53.941Z,92.00
2023-04-15T06:05:21.489Z,91.70
2023-04-15T06:07:49.885Z,91.36
2023-04-15T06:10:18.625Z,91.24
2023-04-15T06:12:46.356Z,91.78
2023-04-15T06:15:14.115Z,92.10
2023-04-15T06:17:41.946Z,91.68
2023-04-15T06:20:09.990Z,91.93
2023-04-15T06:22:39.276Z,91.39
2023-04-15T06:25:08.793Z,90.90
2023-04-15T06:27:36.256Z,91.17
2023-04-15T06:30:04.499Z,91.49
2023-04-15T06:32:32.904Z,91.44
2023-04-15T06:35:00.499Z,90.93
2023-04-15T06:37:28.219Z,90.71
2023-04-15T06:39:56.222Z,90.58
2023-04-15T06:42:23.931Z,90.54
2023-04-15T06:44:51.824Z,89.85
2023-04-15T06:49:47.351Z,89.43
2023-04-15T06:52:16.646Z,89.61
2023-04-15T06:54:44.442Z,89.86
2023-04-15T06:57:11.940Z,89.75
2023-04-15T06:59:39.500Z,89.63
2023-04-15T07:02:12.509Z,89.64
2023-04-15T07:04:40.494Z,89.74
2023-04-15T07:07:08.506Z,89.93
2023-04-15T07:09:36.338Z,89.49
2023-04-15T07:12:04.151Z,89.40
2023-04-15T07:14:31.964Z,89.22
2023-04-15T07:16:59.561Z,89.40
2023-04-15T07:19:27.223Z,89.23
2023-04-15T07:21:55.005Z,89.16
2023-04-15T07:24:26.691Z,88.76
2023-04-15T07:26:58.643Z,88.47
2023-04-15T07:29:28.244Z,88.76
2023-04-15T07:31:57.182Z,88.21
2023-04-15T07:34:24.837Z,88.99
2023-04-15T07:36:52.799Z,88.13
2023-04-15T07:39:20.306Z,88.00
2023-04-15T07:41:49.130Z,87.57
2023-04-15T07:44:16.957Z,87.82
2023-04-15T07:46:44.465Z,87.57
2023-04-15T07:49:12.411Z,85.92
2023-04-15T07:51:40.308Z,84.02
2023-04-15T07:54:07.736Z,83.58
2023-04-15T07:56:35.330Z,83.88
2023-04-15T07:59:04.827Z,84.06
2023-04-15T08:01:33.118Z,83.88
2023-04-15T08:04:01.057Z,83.26
2023-04-15T08:06:29.027Z,82.71
2023-04-15T08:08:57.004Z,83.00
2023-04-15T08:11:25.021Z,82.82
2023-04-15T08:13:52.977Z,82.41
2023-04-15T08:16:25.223Z,82.30
2023-04-15T08:18:55.458Z,82.03
2023-04-15T08:21:23.891Z,82.52
2023-04-15T08:23:53.469Z,81.68
2023-04-15T08:26:21.791Z,81.60
2023-04-15T08:28:50.089Z,81.46
2023-04-15T08:31:19.427Z,80.53
2023-04-15T08:33:47.343Z,79.85
2023-04-15T08:36:14.992Z,79.34
2023-04-15T08:38:42.547Z,79.60
2023-04-15T08:41:18.907Z,79.79
2023-04-15T08:43:53.154Z,79.33
2023-04-15T08:46:22.036Z,79.18
2023-04-15T08:48:50.162Z,79.16
2023-04-15T08:51:18.712Z,78.87
2023-04-15T08:53:47.603Z,79.47
2023-04-15T08:56:20.354Z,80.44
2023-04-15T08:58:48.817Z,80.17
2023-04-15T09:01:17.029Z,80.67
2023-04-15T09:03:45.002Z,81.67
2023-04-15T09:06:13.530Z,82.22
2023-04-15T09:08:41.473Z,82.60
2023-04-15T09:11:09.042Z,82.39
2023-04-15T09:13:37.063Z,82.25
2023-04-15T09:16:06.888Z,82.01
2023-04-15T09:18:36.505Z,82.41
2023-04-15T09:21:12.729Z,82.00
2023-04-15T09:23:42.436Z,82.04
2023-04-15T09:26:10.197Z,81.03
2023-04-15T09:28:43.573Z,80.89
2023-04-15T09:31:12.100Z,79.79
2023-04-15T09:33:58.718Z,79.98
2023-04-15T09:36:29.833Z,79.89
2023-04-15T09:38:59.062Z,80.29
2023-04-15T09:41:27.509Z,79.81
2023-04-15T09:43:55.147Z,80.62
2023-04-15T09:46:41.552Z,81.18
2023-04-15T09:49:11.076Z,80.47
2023-04-15T09:51:39.218Z,79.49
2023-04-15T09:54:07.512Z,79.67
2023-04-15T09:56:42.227Z,79.08
2023-04-15T09:59:09.893Z,78.91
2023-04-15T10:01:41.264Z,78.48
2023-04-15T10:04:09.779Z,77.60
2023-04-15T10:06:37.713Z,78.24
2023-04-15T10:09:06.712Z,77.98
2023-04-15T10:11:35.725Z,77.34
2023-04-15T10:14:04.316Z,75.94
2023-04-15T10:16:33.112Z,76.03
2023-04-15T10:19:04.576Z,75.62
2023-04-15T10:21:32.383Z,76.44
2023-04-15T10:24:02.448Z,77.25
2023-04-15T10:26:31.318Z,75.12
2023-04-15T10:29:00.126Z,75.00
2023-04-15T10:31:28.725Z,73.37
2023-04-15T10:33:57.901Z,73.30
2023-04-15T10:36:25.757Z,72.21
2023-04-15T10:38:53.400Z,72.48
2023-04-15T10:41:22.332Z,71.88
2023-04-15T10:44:04.036Z,71.17
2023-04-15T10:46:37.369Z,71.27
2023-04-15T10:49:11.147Z,71.99
2023-04-15T10:51:44.666Z,70.08
2023-04-15T10:54:16.046Z,68.69
2023-04-15T10:56:45.044Z,69.91
2023-04-15T10:59:12.576Z,70.09
2023-04-15T11:02:07.468Z,68.19
2023-04-15T11:04:55.596Z,68.68
2023-04-15T11:07:36.856Z,68.36
2023-04-15T11:10:31.153Z,69.48
2023-04-15T11:13:01.291Z,69.10
2023-04-15T11:15:30.081Z,68.46
2023-04-15T11:17:58.803Z,70.15
2023-04-15T11:20:27.196Z,66.65
2023-04-15T11:23:14.110Z,68.28
2023-04-15T11:25:43.380Z,64.33
2023-04-15T11:28:12.799Z,62.88
2023-04-15T11:30:42.259Z,62.95
2023-04-15T11:33:14.911Z,61.92
2023-04-15T11:35:43.053Z,61.25
2023-04-15T11:38:12.678Z,59.62
2023-04-15T11:40:43.833Z,58.99
2023-04-15T11:43:21.494Z,60.22
2023-04-15T11:46:00.516Z,59.76
2023-04-15T11:48:31.224Z,60.60
2023-04-15T11:51:08.125Z,57.66
2023-04-15T11:53:44.583Z,58.18
2023-04-15T11:56:18.453Z,57.76
2023-04-15T11:58:46.692Z,56.42
2023-04-15T12:01:14.266Z,56.58
2023-04-15T12:03:45.314Z,58.36
2023-04-15T12:06:21.371Z,58.67
2023-04-15T12:08:52.754Z,57.77
2023-04-15T12:11:27.080Z,58.71
2023-04-15T12:14:17.296Z,58.82
2023-04-15T12:16:55.208Z,57.81
2023-04-15T12:19:28.810Z,57.33
2023-04-15T12:22:01.556Z,56.88
2023-04-15T12:24:33.159Z,57.36
2023-04-15T12:27:05.677Z,56.95
2023-04-15T12:29:35.979Z,58.60
2023-04-15T12:32:11.657Z,56.37
2023-04-15T12:34:45.703Z,57.36
2023-04-15T12:37:14.453Z,56.88
2023-04-15T12:39:43.736Z,57.31
2023-04-15T12:42:12.035Z,57.69
2023-04-15T12:44:39.957Z,58.46
2023-04-15T12:47:09.661Z,59.56
2023-04-15T12:49:37.816Z,60.93
2023-04-15T12:52:05.922Z,61.77
2023-04-15T12:54:34.704Z,61.87
2023-04-15T12:57:05.987Z,62.07
2023-04-15T12:59:35.742Z,61.15
2023-04-15T13:02:04.278Z,60.99
2023-04-15T13:04:32.012Z,60.18
2023-04-15T13:07:00.280Z,61.19
2023-04-15T13:09:27.841Z,60.59
2023-04-15T13:11:56.473Z,61.09
2023-04-15T13:14:24.323Z,61.24
2023-04-15T13:16:52.081Z,59.67
2023-04-15T13:19:19.596Z,59.81
2023-04-15T13:21:47.421Z,59.93
2023-04-15T13:24:14.925Z,60.16
2023-04-15T13:26:42.769Z,60.74
2023-04-15T13:29:11.635Z,59.90
2023-04-15T13:31:39.194Z,60.07
2023-04-15T13:34:06.848Z,59.74
2023-04-15T13:36:34.821Z,58.32
2023-04-15T13:39:02.506Z,57.70
2023-04-15T13:41:30.043Z,57.59
2023-04-15T13:43:58.504Z,58.24
2023-04-15T13:46:26.301Z,57.69
2023-04-15T13:48:53.821Z,57.72
2023-04-15T13:51:21.893Z,57.65
2023-04-15T13:53:49.425Z,57.57
2023-04-15T13:56:16.942Z,57.55
2023-04-15T13:58:44.759Z,56.29
2023-04-15T14:01:12.329Z,57.04
2023-04-15T14:03:40.449Z,57.11
2023-04-15T14:06:08.157Z,56.54
2023-04-15T14:08:35.746Z,56.22
2023-04-15T14:11:03.673Z,55.36
2023-04-15T14:13:31.386Z,55.69
2023-04-15T14:15:59.083Z,55.00
2023-04-15T14:18:27.108Z,54.24
2023-04-15T14:20:54.662Z,54.76
2023-04-15T14:23:25.314Z,53.36
2023-04-15T14:25:53.588Z,53.47
2023-04-15T14:28:21.201Z,53.00
2023-04-15T14:30:48.807Z,52.39
2023-04-15T14:33:16.643Z,52.20
2023-04-15T14:35:44.218Z,51.46
2023-04-15T14:38:11.825Z,51.33
2023-04-15T14:40:40.797Z,51.31
2023-04-15T14:43:08.440Z,52.15
2023-04-15T14:45:36.445Z,51.55
2023-04-15T14:48:06.486Z,52.41
2023-04-15T14:50:34.153Z,52.56
2023-04-15T14:53:01.823Z,51.83
2023-04-15T14:55:29.649Z,52.57
2023-04-15T14:57:57.173Z,52.25
2023-04-15T15:00:24.695Z,52.09
2023-04-15T15:02:52.680Z,53.24
2023-04-15T15:05:20.853Z,52.79
2023-04-15T15:07:48.423Z,52.70
2023-04-15T15:10:16.250Z,51.89
2023-04-15T15:12:43.797Z,52.47
2023-04-15T15:15:24.996Z,52.71
2023-04-15T15:17:54.390Z,52.45
2023-04-15T15:20:23.117Z,53.11
2023-04-15T15:22:50.738Z,54.38
2023-04-15T15:25:18.530Z,54.28
2023-04-15T15:27:46.506Z,54.68
2023-04-15T15:30:14.270Z,54.96
2023-04-15T15:32:42.972Z,55.45
2023-04-15T15:35:11.150Z,54.72
2023-04-15T15:37:38.780Z,55.30
2023-04-15T15:40:07.837Z,55.36
2023-04-15T15:42:35.312Z,55.81
2023-04-15T15:45:04.746Z,56.66
2023-04-15T15:47:32.757Z,56.39
2023-04-15T15:50:02.606Z,56.48
2023-04-15T15:52:31.213Z,56.48
2023-04-15T15:54:59.034Z,58.01
2023-04-15T15:57:26.592Z,59.63
2023-04-15T16:00:04.933Z,60.95
2023-04-15T16:05:11.394Z,62.17
2023-04-15T16:07:39.029Z,62.35
2023-04-15T16:10:07.546Z,62.81
2023-04-15T16:12:35.166Z,63.25
2023-04-15T16:15:18.029Z,63.80
2023-04-15T16:18:03.722Z,64.22
2023-04-15T16:20:31.642Z,64.59
2023-04-15T16:22:59.658Z,65.45
2023-04-15T16:25:27.277Z,66.17
2023-04-15T16:28:05.558Z,67.22
2023-04-15T16:30:40.415Z,68.12
2023-04-15T16:33:10.464Z,67.28
2023-04-15T16:35:37.972Z,68.15
2023-04-15T16:38:06.483Z,69.39
2023-04-15T16:40:34.339Z,70.67
2023-04-15T16:43:03.117Z,71.07
2023-04-15T16:45:31.123Z,71.93
2023-04-15T16:47:58.723Z,72.23
2023-04-15T16:50:26.640Z,72.93
2023-04-15T16:52:55.007Z,73.04
2023-04-15T16:55:22.527Z,73.93
2023-04-15T16:58:01.977Z,75.47
2023-04-15T17:00:31.870Z,75.60
2023-04-15T17:03:00.737Z,75.96
2023-04-15T17:05:29.323Z,76.74
2023-04-15T17:07:57.119Z,76.73
2023-04-15T17:10:24.660Z,76.74
2023-04-15T17:12:52.702Z,77.81
2023-04-15T17:15:20.673Z,79.15
2023-04-15T17:17:48.286Z,79.45
2023-04-15T17:20:17.459Z,78.37
2023-04-15T17:22:45.894Z,77.09
2023-04-15T17:25:14.774Z,77.48
2023-04-15T17:27:42.321Z,79.02
2023-04-15T17:30:10.757Z,78.73
2023-04-15T17:32:40.099Z,79.18
2023-04-15T17:35:08.269Z,79.21
2023-04-15T17:37:36.130Z,79.90
2023-04-15T17:40:05.824Z,81.26
2023-04-15T17:42:35.201Z,82.30
2023-04-15T17:45:03.269Z,82.04
2023-04-15T17:47:30.892Z,83.02
2023-04-15T17:49:58.405Z,83.61
2023-04-15T17:52:26.423Z,83.74
2023-04-15T17:54:53.896Z,83.51
2023-04-15T17:57:21.567Z,83.59
2023-04-15T17:59:49.624Z,83.83
2023-04-15T18:02:17.783Z,84.41
2023-04-15T18:04:45.983Z,85.19
2023-04-15T18:07:14.505Z,85.63
2023-04-15T18:09:44.245Z,85.58
2023-04-15T18:12:12.118Z,85.41
2023-04-15T18:14:39.639Z,85.29
2023-04-15T18:17:07.484Z,85.58
2023-04-15T18:19:35.456Z,85.36
2023-04-15T18:22:04.091Z,85.33
2023-04-15T18:24:31.720Z,85.00
2023-04-15T18:26:59.600Z,84.67
2023-04-15T18:29:27.212Z,84.23
2023-04-15T18:31:54.818Z,84.38
2023-04-15T18:34:22.775Z,84.63
2023-04-15T18:36:50.301Z,84.77
2023-04-15T18:39:18.080Z,84.71
2023-04-15T18:41:45.896Z,85.09
2023-04-15T18:44:13.411Z,85.68
2023-04-15T18:46:40.902Z,86.33
2023-04-15T18:49:08.811Z,86.47
2023-04-15T18:51:36.305Z,86.43
2023-04-15T18:54:03.900Z,86.48
2023-04-15T18:56:31.776Z,86.77
2023-04-15T18:59:10.300Z,87.48
2023-04-15T19:01:47.256Z,87.53
2023-04-15T19:04:14.970Z,87.81
2023-04-15T19:06:42.633Z,87.89
2023-04-15T19:09:10.480Z,87.49
2023-04-15T19:11:38.450Z,86.81
2023-04-15T19:14:06.704Z,86.71
2023-04-15T19:16:34.621Z,87.11
2023-04-15T19:19:02.344Z,87.05
2023-04-15T19:21:30.610Z,86.94
2023-04-15T19:23:58.925Z,87.17
2023-04-15T19:26:26.480Z,87.34
2023-04-15T19:28:54.035Z,87.63
2023-04-15T19:31:21.909Z,87.49
2023-04-15T19:33:49.559Z,87.05
2023-04-15T19:36:18.265Z,87.12
2023-04-15T19:38:46.127Z,86.85
2023-04-15T19:41:13.706Z,87.36
2023-04-15T19:43:41.282Z,87.56
2023-04-15T19:46:09.193Z,88.43
2023-04-15T19:48:36.921Z,88.43
2023-04-15T19:51:04.506Z,88.30
2023-04-15T19:53:32.478Z,88.28
2023-04-15T19:56:00.081Z,87.90
2023-04-15T19:58:27.877Z,87.95
2023-04-15T20:00:55.917Z,87.51
2023-04-15T20:03:24.106Z,86.91
2023-04-15T20:05:52.814Z,86.67
2023-04-15T20:08:20.773Z,86.22
2023-04-15T20:10:48.642Z,86.05
2023-04-15T20:13:16.225Z,86.07
2023-04-15T20:15:44.882Z,86.10
2023-04-15T20:18:12.789Z,86.13
2023-04-15T20:20:40.771Z,86.17
2023-04-15T20:23:08.295Z,86.13
2023-04-15T20:25:36.557Z,85.94
2023-04-15T20:28:04.097Z,86.13
2023-04-15T20:30:31.772Z,87.73
2023-04-15T20:33:00.506Z,87.88
2023-04-15T20:35:31.029Z,87.93
2023-04-15T20:37:59.871Z,87.74
2023-04-15T20:40:27.579Z,87.99
2023-04-15T20:42:55.243Z,88.30
2023-04-15T20:45:23.079Z,88.33
2023-04-15T20:47:50.801Z,88.50
2023-04-15T20:50:18.433Z,88.25
2023-04-15T20:52:46.336Z,87.63
2023-04-15T20:55:13.918Z,87.38
2023-04-15T20:57:41.401Z,87.09
2023-04-15T21:00:10.945Z,87.57
2023-04-15T21:02:38.696Z,87.09
2023-04-15T21:05:06.743Z,86.79
2023-04-15T21:07:34.707Z,86.03
2023-04-15T21:10:02.298Z,85.47
2023-04-15T21:12:29.914Z,85.24
2023-04-15T21:14:57.713Z,86.01
2023-04-15T21:17:25.570Z,87.43
2023-04-15T21:19:53.096Z,86.96
2023-04-15T21:22:20.984Z,84.44
2023-04-15T21:24:48.892Z,83.84
2023-04-15T21:27:16.485Z,82.95
2023-04-15T21:29:44.487Z,82.20
2023-04-15T21:32:12.105Z,82.19
2023-04-15T21:34:39.715Z,83.25
2023-04-15T21:37:07.848Z,85.48
2023-04-15T21:39:35.541Z,86.58
2023-04-15T21:42:03.111Z,84.38
2023-04-15T21:44:31.199Z,83.56
2023-04-15T21:46:58.916Z,83.58
2023-04-15T21:49:26.451Z,83.61
2023-04-15T21:51:54.266Z,84.37
2023-04-15T21:54:21.750Z,85.19
2023-04-15T21:56:50.100Z,85.33
2023-04-15T21:59:17.923Z,85.73
2023-04-15T22:01:45.676Z,85.31
2023-04-15T22:04:13.811Z,83.48
2023-04-15T22:06:41.458Z,82.57
2023-04-15T22:09:10.572Z,81.88
2023-04-15T22:11:39.867Z,81.57
2023-04-15T22:14:07.513Z,81.23
2023-04-15T22:16:35.034Z,80.88
2023-04-15T22:19:02.901Z,80.69
2023-04-15T22:21:30.503Z,80.63
2023-04-15T22:24:39.274Z,81.09
2023-04-15T22:26:45.696Z,81.95
2023-04-15T22:29:13.200Z,82.69
2023-04-15T22:31:40.794Z,83.65
2023-04-15T22:34:08.735Z,83.02
2023-04-15T22:36:36.190Z,82.09
2023-04-15T22:39:03.966Z,81.04
2023-04-15T22:41:31.996Z,80.50
2023-04-15T22:43:59.540Z,80.74
2023-04-15T22:46:27.079Z,81.08
2023-04-15T22:48:54.996Z,81.41
2023-04-15T22:51:23.662Z,82.75
2023-04-15T22:53:51.259Z,84.37
2023-04-15T22:56:21.141Z,84.39
2023-04-15T22:58:49.703Z,84.32
2023-04-15T23:01:18.058Z,85.15
2023-04-15T23:03:56.376Z,85.42
2023-04-15T23:06:30.070Z,85.60
2023-04-15T23:08:57.886Z,86.14
2023-04-15T23:11:25.561Z,86.38
2023-04-15T23:13:53.191Z,85.97
2023-04-15T23:16:22.187Z,86.60
2023-04-15T23:18:49.661Z,85.98
2023-04-15T23:21:17.220Z,86.28
2023-04-15T23:23:45.040Z,86.46
2023-04-15T23:26:12.532Z,86.50
2023-04-15T23:28:39.972Z,86.71
2023-04-15T23:31:07.785Z,86.37
2023-04-15T23:33:35.559Z,86.48
2023-04-15T23:36:03.102Z,86.87
2023-04-15T23:38:30.869Z,86.76
2023-04-15T23:40:58.989Z,87.56
2023-04-15T23:43:26.499Z,87.16
2023-04-15T23:45:54.308Z,86.87
2023-04-15T23:48:23.729Z,86.94
2023-04-15T23:50:51.242Z,86.93
2023-04-15T23:53:19.035Z,87.27
2023-04-15T23:55:46.630Z,87.29
2023-04-15T23:58:14.150Z,87.53
